Time;durP1;ratioP1;P1;durP2;ratioP2;P2;SDS_P1;SDS_P2;PMS_P1;PMS_P2;Temp;Humidity;BMP_temperature;BMP_pressure;BME280_temperature;BME280_humidity;BME280_pressure;Samples;Min_cycle;Max_cycle;Signal;HPM_P1;HPM_P2
2022/01/05 00:00:19;;;;;;;;;;;6.60;99.90;;;;;;4975693;28;19913;-90
2022/01/05 00:02:44;;;;;;;;;;;6.60;99.90;;;;;;4975576;28;19913;-90
2022/01/05 00:05:10;;;;;;;;;;;6.60;99.90;;;;;;4976752;28;19906;-90
2022/01/05 00:07:36;;;;;;;;;;;6.60;99.90;;;;;;4975605;28;19941;-90
2022/01/05 00:10:02;;;;;;;;;;;6.50;99.90;;;;;;4975479;28;19906;-90
2022/01/05 00:12:27;;;;;;;;;;;6.50;99.90;;;;;;4975345;28;19965;-90
2022/01/05 00:14:53;;;;;;;;;;;6.50;99.90;;;;;;4975900;28;19917;-90
2022/01/05 00:17:18;;;;;;;;;;;6.50;99.90;;;;;;4975340;28;19910;-90
2022/01/05 00:19:44;;;;;;;;;;;6.50;99.90;;;;;;4976246;28;19921;-90
2022/01/05 00:22:10;;;;;;;;;;;6.50;99.90;;;;;;4975483;28;19913;-90
2022/01/05 00:24:36;;;;;;;;;;;6.50;99.90;;;;;;4975329;28;19906;-90
2022/01/05 00:27:03;;;;;;;;;;;6.50;99.90;;;;;;4976083;28;19905;-90
2022/01/05 00:29:28;;;;;;;;;;;6.50;99.90;;;;;;4975750;28;19913;-90
2022/01/05 00:31:54;;;;;;;;;;;6.50;99.90;;;;;;4975190;28;19907;-90
2022/01/05 00:34:20;;;;;;;;;;;6.40;99.90;;;;;;4975077;28;20400;-90
2022/01/05 00:36:45;;;;;;;;;;;6.40;99.90;;;;;;4975463;28;19934;-90
2022/01/05 00:39:11;;;;;;;;;;;6.40;99.90;;;;;;4976454;28;19941;-90
2022/01/05 00:41:36;;;;;;;;;;;6.30;99.90;;;;;;4975084;28;20392;-90
2022/01/05 00:44:02;;;;;;;;;;;6.30;99.90;;;;;;4975311;28;19906;-90
2022/01/05 00:46:27;;;;;;;;;;;6.20;99.90;;;;;;4975231;28;19907;-90
2022/01/05 00:48:53;;;;;;;;;;;6.20;99.90;;;;;;4975104;28;20296;-90
2022/01/05 00:51:19;;;;;;;;;;;6.20;99.90;;;;;;4975899;28;19906;-90
2022/01/05 00:53:44;;;;;;;;;;;6.10;99.90;;;;;;4975111;28;19965;-90
2022/01/05 00:56:10;;;;;;;;;;;6.10;99.90;;;;;;4975044;28;20265;-90
2022/01/05 00:58:35;;;;;;;;;;;6.10;99.90;;;;;;4974959;28;19906;-90
2022/01/05 01:01:01;;;;;;;;;;;6.10;99.90;;;;;;4975847;28;20008;-90
2022/01/05 01:03:28;;;;;;;;;;;6.10;99.90;;;;;;4974918;28;19961;-90
2022/01/05 01:05:54;;;;;;;;;;;6.10;99.90;;;;;;4975531;28;19910;-90
2022/01/05 01:08:20;;;;;;;;;;;6.00;99.90;;;;;;4974901;28;19913;-89
2022/01/05 01:10:46;;;;;;;;;;;6.10;99.90;;;;;;4974677;28;19918;-90
2022/01/05 01:13:16;;;;;;;;;;;6.00;99.90;;;;;;4974724;28;19918;-90
2022/01/05 01:15:49;;;;;;;;;;;6.00;99.90;;;;;;4974736;28;19921;-90
2022/01/05 01:18:15;;;;;;;;;;;6.10;99.90;;;;;;4974829;28;19906;-89
2022/01/05 01:20:41;;;;;;;;;;;6.10;99.90;;;;;;4974725;28;19906;-90
2022/01/05 01:23:06;;;;;;;;;;;6.10;99.90;;;;;;4974875;28;19934;-90
2022/01/05 01:25:33;;;;;;;;;;;6.10;99.90;;;;;;4974786;28;19922;-89
2022/01/05 01:27:58;;;;;;;;;;;6.00;99.90;;;;;;4974627;28;19906;-89
2022/01/05 01:30:24;;;;;;;;;;;6.00;99.90;;;;;;4975207;28;19917;-90
2022/01/05 01:32:49;;;;;;;;;;;6.00;99.90;;;;;;4975690;28;20338;-90
2022/01/05 01:35:15;;;;;;;;;;;6.00;99.90;;;;;;4975112;28;19997;-90
2022/01/05 01:37:41;;;;;;;;;;;6.00;99.90;;;;;;4975132;28;19929;-90
2022/01/05 01:40:07;;;;;;;;;;;6.00;99.90;;;;;;4974525;28;19946;-90
2022/01/05 01:42:32;;;;;;;;;;;6.00;99.90;;;;;;4974594;28;20337;-90
2022/01/05 01:44:58;;;;;;;;;;;6.00;99.90;;;;;;4973928;28;19917;-90
2022/01/05 01:47:24;;;;;;;;;;;6.00;99.90;;;;;;4974678;28;19910;-90
2022/01/05 01:49:49;;;;;;;;;;;5.90;99.90;;;;;;4974737;28;19950;-90
2022/01/05 01:52:15;;;;;;;;;;;6.00;99.90;;;;;;4974794;28;19906;-90
2022/01/05 01:54:41;;;;;;;;;;;6.00;99.90;;;;;;4974261;28;19914;-90
2022/01/05 01:57:07;;;;;;;;;;;6.00;99.90;;;;;;4974451;28;19993;-90
2022/01/05 01:59:33;;;;;;;;;;;6.00;99.90;;;;;;4974543;28;20301;-90
2022/01/05 02:01:59;;;;;;;;;;;6.00;99.90;;;;;;4977198;28;19917;-90
2022/01/05 02:04:25;;;;;;;;;;;6.00;99.90;;;;;;4977816;28;19914;-90
2022/01/05 02:06:52;;;;;;;;;;;6.00;99.90;;;;;;4977889;28;20276;-90
2022/01/05 02:09:17;;;;;;;;;;;6.00;99.90;;;;;;4978467;28;19906;-90
2022/01/05 02:11:43;;;;;;;;;;;6.00;99.90;;;;;;4978633;28;20320;-90
2022/01/05 02:14:09;;;;;;;;;;;6.10;99.90;;;;;;4977297;28;19925;-89
2022/01/05 02:16:38;;;;;;;;;;;6.10;99.90;;;;;;4978858;28;19906;-90
2022/01/05 02:19:04;;;;;;;;;;;6.10;99.90;;;;;;4977652;28;19913;-90
2022/01/05 02:21:31;;;;;;;;;;;6.10;99.90;;;;;;4977667;28;19913;-90
2022/01/05 02:23:57;;;;;;;;;;;6.10;99.90;;;;;;4977818;28;20357;-89
2022/01/05 02:26:23;;;;;;;;;;;6.10;99.90;;;;;;4978002;28;19956;-90
2022/01/05 02:28:49;;;;;;;;;;;6.10;99.90;;;;;;4977619;28;19906;-89
2022/01/05 02:31:15;;;;;;;;;;;6.10;99.90;;;;;;4977513;28;19906;-90
2022/01/05 02:33:40;;;;;;;;;;;6.10;99.90;;;;;;4977211;28;19906;-90
2022/01/05 02:36:07;;;;;;;;;;;6.10;99.90;;;;;;4977001;28;20013;-89
2022/01/05 02:38:32;;;;;;;;;;;6.10;99.90;;;;;;4978331;28;19906;-89
2022/01/05 02:41:04;;;;;;;;;;;6.10;99.90;;;;;;4977425;28;20265;-90
2022/01/05 02:43:29;;;;;;;;;;;6.10;99.90;;;;;;4977167;28;19912;-90
2022/01/05 02:45:55;;;;;;;;;;;6.10;99.90;;;;;;4978084;28;19906;-90
2022/01/05 02:48:20;;;;;;;;;;;6.00;99.90;;;;;;4976954;28;19933;-90
2022/01/05 02:50:46;;;;;;;;;;;6.10;99.90;;;;;;4977508;28;19912;-90
2022/01/05 02:53:12;;;;;;;;;;;6.00;99.90;;;;;;4976904;28;19906;-90
2022/01/05 02:55:37;;;;;;;;;;;6.00;99.90;;;;;;4976560;28;19933;-90
2022/01/05 02:58:03;;;;;;;;;;;6.00;99.90;;;;;;4976815;28;19941;-90
2022/01/05 03:00:29;;;;;;;;;;;6.00;99.90;;;;;;4977145;28;19921;-89
2022/01/05 03:02:55;;;;;;;;;;;6.00;99.90;;;;;;4976766;28;19906;-90
2022/01/05 03:05:20;;;;;;;;;;;6.00;99.90;;;;;;4977370;28;20368;-90
2022/01/05 03:07:46;;;;;;;;;;;6.00;99.90;;;;;;4976819;28;19929;-90
2022/01/05 03:10:13;;;;;;;;;;;6.00;99.90;;;;;;4977262;28;20368;-89
2022/01/05 03:12:40;;;;;;;;;;;6.00;99.90;;;;;;4976124;28;19918;-89
2022/01/05 03:15:06;;;;;;;;;;;6.00;99.90;;;;;;4977018;28;19917;-90
2022/01/05 03:17:32;;;;;;;;;;;6.00;99.90;;;;;;4976488;28;20360;-90
2022/01/05 03:19:57;;;;;;;;;;;6.00;99.90;;;;;;4976473;28;19975;-90
2022/01/05 03:22:23;;;;;;;;;;;6.00;99.90;;;;;;4976660;28;19906;-90
2022/01/05 03:24:49;;;;;;;;;;;6.00;99.90;;;;;;4976467;28;19906;-90
2022/01/05 03:27:14;;;;;;;;;;;6.00;99.90;;;;;;4976469;28;19906;-90
2022/01/05 03:29:40;;;;;;;;;;;5.90;99.90;;;;;;4976334;28;20269;-89
2022/01/05 03:32:05;;;;;;;;;;;5.90;99.90;;;;;;4976246;28;20049;-89
2022/01/05 03:34:32;;;;;;;;;;;5.90;99.90;;;;;;4976314;28;19921;-89
2022/01/05 03:36:57;;;;;;;;;;;5.90;99.90;;;;;;4976133;28;19907;-89
2022/01/05 03:39:23;;;;;;;;;;;5.90;99.90;;;;;;4976620;28;19917;-90
2022/01/05 03:41:48;;;;;;;;;;;5.80;99.90;;;;;;4976071;28;20000;-90
2022/01/05 03:44:14;;;;;;;;;;;5.80;99.90;;;;;;4976065;28;19993;-89
2022/01/05 03:46:40;;;;;;;;;;;5.80;99.90;;;;;;4976412;28;20372;-89
2022/01/05 03:49:05;;;;;;;;;;;5.80;99.90;;;;;;4975871;28;19906;-89
2022/01/05 03:51:31;;;;;;;;;;;5.80;99.90;;;;;;4976409;28;19913;-89
2022/01/05 03:53:57;;;;;;;;;;;5.70;99.90;;;;;;4976757;28;19941;-90
2022/01/05 03:56:22;;;;;;;;;;;5.70;99.90;;;;;;4976025;28;19906;-89
2022/01/05 03:58:49;;;;;;;;;;;5.70;99.90;;;;;;4976011;28;19913;-89
2022/01/05 04:01:14;;;;;;;;;;;5.60;99.90;;;;;;4975885;28;19925;-89
2022/01/05 04:03:40;;;;;;;;;;;5.60;99.90;;;;;;4975757;28;19906;-89
2022/01/05 04:06:06;;;;;;;;;;;5.60;99.90;;;;;;4975597;28;19906;-89
2022/01/05 04:08:31;;;;;;;;;;;5.60;99.90;;;;;;4976174;28;19913;-90
2022/01/05 04:10:57;;;;;;;;;;;5.60;99.90;;;;;;4975915;28;20332;-90
2022/01/05 04:13:23;;;;;;;;;;;5.60;99.90;;;;;;5002056;28;19940;-89
2022/01/05 04:15:48;;;;;;;;;;;5.50;99.90;;;;;;5001926;28;19913;-89
2022/01/05 04:18:14;;;;;;;;;;;5.50;99.90;;;;;;5005437;28;20271;-90
2022/01/05 04:20:40;;;;;;;;;;;5.50;99.90;;;;;;5005672;28;19906;-89
2022/01/05 04:23:05;;;;;;;;;;;5.60;99.90;;;;;;5001406;28;19905;-90
2022/01/05 04:25:32;;;;;;;;;;;5.50;99.90;;;;;;4997970;28;19906;-90
2022/01/05 04:27:59;;;;;;;;;;;5.50;99.90;;;;;;4997922;28;20003;-89
2022/01/05 04:30:24;;;;;;;;;;;5.60;99.90;;;;;;5015403;28;19905;-90
2022/01/05 04:32:50;;;;;;;;;;;5.50;99.90;;;;;;4998824;28;19912;-90
2022/01/05 04:35:16;;;;;;;;;;;5.50;99.90;;;;;;4998600;28;19941;-90
2022/01/05 04:37:42;;;;;;;;;;;5.50;99.90;;;;;;4997890;28;20367;-89
2022/01/05 04:40:08;;;;;;;;;;;5.50;99.90;;;;;;4998107;28;20245;-90
2022/01/05 04:42:34;;;;;;;;;;;5.50;99.90;;;;;;4997817;28;19916;-90
2022/01/05 04:44:59;;;;;;;;;;;5.50;99.90;;;;;;4998407;28;19910;-89
2022/01/05 04:47:25;;;;;;;;;;;5.50;99.90;;;;;;4997890;28;19910;-90
2022/01/05 04:49:51;;;;;;;;;;;5.50;99.90;;;;;;4997680;28;19917;-90
2022/01/05 04:52:16;;;;;;;;;;;5.50;99.90;;;;;;4997719;28;20016;-89
2022/01/05 04:54:42;;;;;;;;;;;5.60;99.90;;;;;;4997597;28;19914;-90
2022/01/05 04:57:07;;;;;;;;;;;5.60;99.90;;;;;;4997494;28;19905;-91
2022/01/05 04:59:33;;;;;;;;;;;5.60;99.90;;;;;;4997944;28;20371;-89
2022/01/05 05:01:59;;;;;;;;;;;5.60;99.90;;;;;;4997386;28;19967;-89
2022/01/05 05:04:25;;;;;;;;;;;5.70;99.90;;;;;;4997653;28;19964;-89
2022/01/05 05:06:50;;;;;;;;;;;5.70;99.90;;;;;;4997510;28;20265;-90
2022/01/05 05:09:16;;;;;;;;;;;5.70;99.90;;;;;;4997707;28;19929;-90
2022/01/05 05:11:42;;;;;;;;;;;5.70;99.90;;;;;;4997461;28;20372;-90
2022/01/05 05:14:08;;;;;;;;;;;5.80;99.90;;;;;;4996993;28;20077;-90
2022/01/05 05:16:34;;;;;;;;;;;5.70;99.90;;;;;;4997613;28;20004;-90
2022/01/05 05:19:00;;;;;;;;;;;5.80;99.90;;;;;;5015230;28;19920;-90
2022/01/05 05:21:25;;;;;;;;;;;5.80;99.90;;;;;;4997316;28;19909;-90
2022/01/05 05:23:51;;;;;;;;;;;5.80;99.90;;;;;;4997547;28;19906;-90
2022/01/05 05:26:16;;;;;;;;;;;5.80;99.90;;;;;;4997486;28;19905;-90
2022/01/05 05:28:42;;;;;;;;;;;5.90;99.90;;;;;;4997437;28;19909;-90
2022/01/05 05:31:07;;;;;;;;;;;5.90;99.90;;;;;;4997796;28;19912;-90
2022/01/05 05:33:33;;;;;;;;;;;5.90;99.90;;;;;;4997233;28;20031;-90
2022/01/05 05:35:58;;;;;;;;;;;5.90;99.90;;;;;;5000797;28;19917;-90
2022/01/05 05:38:24;;;;;;;;;;;5.90;99.90;;;;;;5002353;28;19952;-90
2022/01/05 05:40:50;;;;;;;;;;;5.80;99.90;;;;;;5001351;28;19909;-90
2022/01/05 05:43:15;;;;;;;;;;;5.80;99.90;;;;;;5000751;28;19905;-90
2022/01/05 05:45:41;;;;;;;;;;;5.80;99.90;;;;;;5001026;28;19912;-89
2022/01/05 05:48:07;;;;;;;;;;;5.70;99.90;;;;;;5001407;28;19940;-90
2022/01/05 05:50:32;;;;;;;;;;;5.70;99.90;;;;;;5001496;28;20317;-90
2022/01/05 05:52:58;;;;;;;;;;;5.70;99.90;;;;;;5001050;28;19905;-91
2022/01/05 05:55:24;;;;;;;;;;;5.70;99.90;;;;;;5000614;28;20375;-90
2022/01/05 05:57:49;;;;;;;;;;;5.70;99.90;;;;;;5001077;28;19917;-90
2022/01/05 06:00:15;;;;;;;;;;;5.70;99.90;;;;;;5000868;28;19906;-90
2022/01/05 06:02:41;;;;;;;;;;;5.80;99.90;;;;;;5001385;28;20011;-91
2022/01/05 06:05:07;;;;;;;;;;;5.70;99.90;;;;;;5000603;28;19950;-90
2022/01/05 06:07:32;;;;;;;;;;;5.80;99.90;;;;;;5000178;28;20015;-90
2022/01/05 06:09:59;;;;;;;;;;;5.80;99.90;;;;;;5000282;28;20313;-90
2022/01/05 06:12:25;;;;;;;;;;;5.80;99.90;;;;;;5001651;28;19929;-90
2022/01/05 06:14:50;;;;;;;;;;;5.80;99.90;;;;;;5000475;28;19909;-91
2022/01/05 06:17:16;;;;;;;;;;;5.80;99.90;;;;;;4999711;28;19964;-90
2022/01/05 06:19:42;;;;;;;;;;;5.80;99.90;;;;;;4999948;28;20265;-90
2022/01/05 06:22:08;;;;;;;;;;;5.90;99.90;;;;;;5001622;28;19992;-90
2022/01/05 06:24:35;;;;;;;;;;;6.00;99.90;;;;;;5000852;28;19921;-90
2022/01/05 06:27:01;;;;;;;;;;;6.00;99.90;;;;;;5000567;28;19912;-90
2022/01/05 06:29:27;;;;;;;;;;;6.10;99.90;;;;;;5000425;28;19906;-90
2022/01/05 06:31:52;;;;;;;;;;;6.20;99.90;;;;;;4999769;28;19906;-90
2022/01/05 06:34:18;;;;;;;;;;;6.30;99.90;;;;;;4999741;28;19909;-90
2022/01/05 06:36:43;;;;;;;;;;;6.30;99.90;;;;;;4999913;28;19952;-91
2022/01/05 06:39:09;;;;;;;;;;;6.40;99.90;;;;;;5000264;28;20003;-90
2022/01/05 06:41:35;;;;;;;;;;;6.40;99.90;;;;;;4999124;28;19905;-90
2022/01/05 06:44:00;;;;;;;;;;;6.50;99.90;;;;;;5000084;28;19912;-90
2022/01/05 06:46:26;;;;;;;;;;;6.50;99.90;;;;;;5000517;28;19945;-91
2022/01/05 06:48:51;;;;;;;;;;;6.60;99.90;;;;;;5000169;28;19905;-90
2022/01/05 06:51:17;;;;;;;;;;;6.70;99.90;;;;;;4999706;28;19951;-91
2022/01/05 06:53:42;;;;;;;;;;;6.70;99.90;;;;;;4999431;28;19906;-90
2022/01/05 06:56:08;;;;;;;;;;;6.80;99.90;;;;;;4999872;28;20407;-90
2022/01/05 06:58:34;;;;;;;;;;;6.90;99.90;;;;;;4999510;28;20316;-90
2022/01/05 07:01:00;;;;;;;;;;;6.90;99.90;;;;;;4999227;28;19964;-91
2022/01/05 07:03:28;;;;;;;;;;;7.00;99.90;;;;;;4999267;28;19917;-91
2022/01/05 07:05:54;;;;;;;;;;;7.00;99.90;;;;;;5000431;28;19917;-91
2022/01/05 07:08:19;;;;;;;;;;;7.10;99.90;;;;;;4999520;28;19952;-91
2022/01/05 07:10:45;;;;;;;;;;;7.10;99.90;;;;;;4999746;28;19928;-92
2022/01/05 07:13:11;;;;;;;;;;;7.20;99.90;;;;;;4984663;28;20246;-90
2022/01/05 07:15:36;;;;;;;;;;;7.20;99.90;;;;;;4976479;28;19910;-91
2022/01/05 07:18:02;;;;;;;;;;;7.30;99.90;;;;;;4976680;28;20316;-91
2022/01/05 07:20:28;;;;;;;;;;;7.30;99.90;;;;;;4977006;28;19906;-90
2022/01/05 07:22:53;;;;;;;;;;;7.30;99.90;;;;;;4976863;28;20011;-91
2022/01/05 07:25:19;;;;;;;;;;;7.40;99.90;;;;;;4976216;28;20210;-91
2022/01/05 07:27:44;;;;;;;;;;;7.40;99.90;;;;;;4976757;28;20257;-91
2022/01/05 07:30:13;;;;;;;;;;;7.40;99.90;;;;;;4975997;28;19906;-91
2022/01/05 07:32:40;;;;;;;;;;;7.40;99.90;;;;;;4976023;28;20367;-91
2022/01/05 07:35:05;;;;;;;;;;;7.50;99.90;;;;;;4976308;28;19981;-90
2022/01/05 07:37:31;;;;;;;;;;;7.50;99.90;;;;;;4977299;28;19910;-91
2022/01/05 07:40:00;;;;;;;;;;;7.50;99.90;;;;;;4979699;28;19906;-91
2022/01/05 07:42:28;;;;;;;;;;;7.50;99.90;;;;;;4977379;28;19906;-91
2022/01/05 07:44:54;;;;;;;;;;;7.50;99.90;;;;;;4976692;28;20318;-91
2022/01/05 07:47:22;;;;;;;;;;;7.60;99.90;;;;;;4976185;28;19913;-91
2022/01/05 07:49:48;;;;;;;;;;;7.60;99.90;;;;;;4976508;28;19906;-91
2022/01/05 07:52:13;;;;;;;;;;;7.70;99.90;;;;;;4975783;28;20265;-92
2022/01/05 07:54:39;;;;;;;;;;;7.80;99.90;;;;;;4975464;28;20416;-91
2022/01/05 07:57:04;;;;;;;;;;;7.90;99.90;;;;;;4975181;28;20309;-91
2022/01/05 07:59:30;;;;;;;;;;;8.00;99.90;;;;;;4975158;28;19910;-91
2022/01/05 08:01:56;;;;;;;;;;;8.10;99.90;;;;;;4975597;28;19910;-91
2022/01/05 08:04:21;;;;;;;;;;;8.10;99.90;;;;;;4975715;28;19937;-91
2022/01/05 08:06:49;;;;;;;;;;;8.20;99.90;;;;;;4976254;28;19906;-92
2022/01/05 08:09:15;;;;;;;;;;;8.20;99.90;;;;;;4975964;28;19933;-92
2022/01/05 08:11:41;;;;;;;;;;;8.30;99.90;;;;;;4976286;28;19910;-91
2022/01/05 08:14:06;;;;;;;;;;;8.30;99.90;;;;;;4974982;28;19918;-92
2022/01/05 08:16:32;;;;;;;;;;;8.40;99.90;;;;;;4975979;28;19910;-91
2022/01/05 08:18:58;;;;;;;;;;;8.40;99.90;;;;;;4975446;28;19906;-92
2022/01/05 08:21:23;;;;;;;;;;;8.40;99.90;;;;;;4975524;28;19917;-92
2022/01/05 08:23:50;;;;;;;;;;;8.50;99.90;;;;;;4975645;28;20277;-92
2022/01/05 08:26:15;;;;;;;;;;;8.50;99.90;;;;;;4975720;28;20365;-92
2022/01/05 08:28:41;;;;;;;;;;;8.60;99.90;;;;;;4975145;28;19906;-92
2022/01/05 08:31:31;;;;;;;;;;;8.70;99.90;;;;;;4975214;28;19913;-92
2022/01/05 08:33:59;;;;;;;;;;;8.80;99.90;;;;;;4975396;28;19941;-92
2022/01/05 08:36:25;;;;;;;;;;;8.90;99.90;;;;;;4975351;28;19929;-92
2022/01/05 08:38:51;;;;;;;;;;;9.00;99.90;;;;;;4975409;28;19906;-91
2022/01/05 08:41:16;;;;;;;;;;;9.00;99.90;;;;;;4975266;28;20358;-91
2022/01/05 08:43:42;;;;;;;;;;;9.10;99.90;;;;;;4975417;28;20350;-91
2022/01/05 08:46:10;;;;;;;;;;;9.20;99.90;;;;;;4974997;28;19907;-90
2022/01/05 08:48:39;;;;;;;;;;;9.30;99.90;;;;;;4975459;28;20056;-91
2022/01/05 08:51:12;;;;;;;;;;;9.40;99.90;;;;;;4974983;28;19943;-91
2022/01/05 08:53:37;;;;;;;;;;;9.50;99.90;;;;;;4975630;28;20261;-91
2022/01/05 08:56:03;;;;;;;;;;;9.50;99.90;;;;;;4975391;28;19910;-92
2022/01/05 08:58:34;;;;;;;;;;;9.60;99.90;;;;;;4975274;28;20027;-91
2022/01/05 09:01:21;;;;;;;;;;;9.60;99.90;;;;;;4975539;28;19968;-92
2022/01/05 09:04:02;;;;;;;;;;;9.70;99.90;;;;;;4975960;28;19912;-91
2022/01/05 09:06:28;;;;;;;;;;;9.70;99.90;;;;;;4959144;28;20364;-91
2022/01/05 09:08:56;;;;;;;;;;;9.70;99.90;;;;;;4974547;28;19910;-91
2022/01/05 09:11:27;;;;;;;;;;;9.70;99.90;;;;;;4978567;28;19946;-91
2022/01/05 09:13:52;;;;;;;;;;;9.70;99.90;;;;;;4982802;28;20004;-91
2022/01/05 09:16:38;;;;;;;;;;;9.80;99.90;;;;;;4978230;28;19914;-91
2022/01/05 09:19:08;;;;;;;;;;;9.80;99.90;;;;;;4978978;28;20009;-92
2022/01/05 09:21:36;;;;;;;;;;;9.90;99.90;;;;;;4979165;28;19957;-92
2022/01/05 09:26:57;;;;;;;;;;;9.90;99.90;;;;;;4975526;28;19951;-91
2022/01/05 09:29:53;;;;;;;;;;;;;;;;;;;;;
2022/01/05 09:32:24;;;;;;;;;;;9.90;99.90;;;;;;4979328;28;19912;-90
2022/01/05 09:34:56;;;;;;;;;;;9.90;99.90;;;;;;4976922;28;20017;-91
2022/01/05 09:37:29;;;;;;;;;;;9.90;99.90;;;;;;4978207;28;19914;-92
2022/01/05 09:42:59;;;;;;;;;;;;;;;;;;;;;
2022/01/05 09:45:30;;;;;;;;;;;10.00;99.80;;;;;;4979574;28;19910;-92
2022/01/05 09:48:01;;;;;;;;;;;10.00;99.90;;;;;;4978527;28;19921;-92
2022/01/05 09:50:47;;;;;;;;;;;;;;;;;;;;;
2022/01/05 09:53:13;;;;;;;;;;;10.20;99.90;;;;;;4979899;28;20006;-92
2022/01/05 09:55:45;;;;;;;;;;;10.30;99.90;;;;;;4978752;28;19954;-92
2022/01/05 09:58:20;;;;;;;;;;;10.40;99.90;;;;;;4978589;28;19957;-92
2022/01/05 10:00:49;;;;;;;;;;;10.40;99.90;;;;;;4978006;28;20226;-93
2022/01/05 10:03:14;;;;;;;;;;;10.50;99.80;;;;;;4979805;28;19910;-92
2022/01/05 10:08:27;;;;;;;;;;;10.60;99.60;;;;;;4978910;28;19913;-92
2022/01/05 10:10:53;;;;;;;;;;;10.70;99.60;;;;;;4978046;28;19906;-91
2022/01/05 10:13:30;;;;;;;;;;;10.80;98.90;;;;;;4977272;28;19918;-91
2022/01/05 10:15:56;;;;;;;;;;;10.90;98.40;;;;;;4978890;28;19910;-92
2022/01/05 10:18:24;;;;;;;;;;;10.90;98.70;;;;;;4983787;28;19973;-91
2022/01/05 10:21:08;;;;;;;;;;;11.00;98.80;;;;;;4985574;28;19941;-90
2022/01/05 10:23:41;;;;;;;;;;;11.10;98.20;;;;;;4982712;28;20376;-92
2022/01/05 10:26:20;;;;;;;;;;;11.20;98.00;;;;;;4977885;28;19973;-92
2022/01/05 10:28:49;;;;;;;;;;;11.30;97.60;;;;;;4977526;28;19914;-91
2022/01/05 10:31:15;;;;;;;;;;;11.40;97.30;;;;;;4977946;28;19952;-93
2022/01/05 10:33:41;;;;;;;;;;;11.40;97.30;;;;;;4978500;28;19914;-93
2022/01/05 10:36:07;;;;;;;;;;;11.50;96.80;;;;;;4977393;28;20305;-92
2022/01/05 10:38:33;;;;;;;;;;;11.50;96.60;;;;;;4977518;28;19913;-92
2022/01/05 10:40:58;;;;;;;;;;;11.40;96.30;;;;;;4978652;28;19913;-92
2022/01/05 10:43:24;;;;;;;;;;;11.40;96.60;;;;;;4977008;28;19906;-92
2022/01/05 10:45:53;;;;;;;;;;;11.40;95.70;;;;;;4976218;28;19910;-92
2022/01/05 10:48:20;;;;;;;;;;;11.40;95.60;;;;;;4977239;28;19964;-93
2022/01/05 10:50:48;;;;;;;;;;;11.50;95.70;;;;;;4977095;28;20345;-90
2022/01/05 10:53:15;;;;;;;;;;;11.50;96.80;;;;;;4976975;28;19906;-90
2022/01/05 10:55:44;;;;;;;;;;;11.60;96.70;;;;;;4976771;28;19916;-92
2022/01/05 10:58:11;;;;;;;;;;;11.70;96.50;;;;;;4978108;28;19981;-92
2022/01/05 11:00:46;;;;;;;;;;;11.70;96.40;;;;;;4976717;28;19910;-92
2022/01/05 11:03:21;;;;;;;;;;;11.70;95.80;;;;;;4977399;28;19906;-92
2022/01/05 11:06:10;;;;;;;;;;;11.70;95.50;;;;;;4976002;28;19906;-91
2022/01/05 11:08:46;;;;;;;;;;;11.60;95.60;;;;;;4969409;28;19906;-91
2022/01/05 11:11:35;;;;;;;;;;;11.50;95.80;;;;;;4977162;28;20284;-90
2022/01/05 11:14:02;;;;;;;;;;;11.50;95.60;;;;;;4976482;28;19972;-91
2022/01/05 11:16:29;;;;;;;;;;;11.40;96.00;;;;;;4976150;28;19910;-91
2022/01/05 11:19:10;;;;;;;;;;;11.40;95.70;;;;;;4976867;28;19981;-90
2022/01/05 11:21:37;;;;;;;;;;;11.30;95.70;;;;;;4977011;28;20244;-90
2022/01/05 11:24:02;;;;;;;;;;;11.20;95.60;;;;;;4976226;28;20000;-91
2022/01/05 11:26:28;;;;;;;;;;;11.10;95.50;;;;;;4976490;28;19992;-91
2022/01/05 11:28:54;;;;;;;;;;;11.00;95.90;;;;;;4976251;28;19910;-91
2022/01/05 11:31:19;;;;;;;;;;;11.00;95.80;;;;;;4976611;28;19930;-91
2022/01/05 11:33:46;;;;;;;;;;;11.00;96.10;;;;;;4975790;28;19921;-92
2022/01/05 11:36:11;;;;;;;;;;;11.00;96.10;;;;;;4976311;28;19953;-92
2022/01/05 11:38:37;;;;;;;;;;;10.90;96.80;;;;;;4976554;28;19917;-91
2022/01/05 11:41:03;;;;;;;;;;;11.00;96.90;;;;;;4975647;28;19941;-91
2022/01/05 11:43:48;;;;;;;;;;;10.90;96.60;;;;;;5080019;27;2156363;-93
2022/01/05 11:46:15;;;;;;;;;;;10.90;96.40;;;;;;5156146;27;19963;-92
2022/01/05 11:48:59;;;;;;;;;;;10.80;96.50;;;;;;5156538;27;19911;-92
2022/01/05 11:51:29;;;;;;;;;;;10.80;96.90;;;;;;5156313;27;19911;-91
2022/01/05 11:54:18;;;;;;;;;;;10.80;97.00;;;;;;5155377;27;20395;-91
2022/01/05 11:56:47;;;;;;;;;;;10.80;97.10;;;;;;5141264;27;19977;-92
2022/01/05 11:59:22;;;;;;;;;;;10.80;97.10;;;;;;5156102;27;19907;-91
2022/01/05 12:02:18;;;;;;;;;;;10.70;96.90;;;;;;5155783;27;19911;-92
2022/01/05 12:05:01;;;;;;;;;;;10.70;96.90;;;;;;5157331;27;19911;-92
2022/01/05 12:07:55;;;;;;;;;;;10.60;97.20;;;;;;5157272;27;19915;-91
2022/01/05 12:11:01;;;;;;;;;;;;;;;;;;;;;
2022/01/05 12:13:47;;;;;;;;;;;;;;;;;;;;;
2022/01/05 12:16:39;;;;;;;;;;;10.40;97.40;;;;;;5175577;27;20264;-91
2022/01/05 12:19:06;;;;;;;;;;;10.40;97.60;;;;;;5131242;28;19918;-92
2022/01/05 12:21:52;;;;;;;;;;;10.30;97.80;;;;;;5116469;28;19919;-91
2022/01/05 12:24:18;;;;;;;;;;;10.40;97.90;;;;;;5112574;28;19912;-92
2022/01/05 12:26:43;;;;;;;;;;;10.40;98.00;;;;;;5113336;28;19907;-92
2022/01/05 12:29:12;;;;;;;;;;;10.40;98.10;;;;;;5113645;28;19957;-92
2022/01/05 12:31:56;;;;;;;;;;;10.40;98.10;;;;;;5113050;28;20358;-91
2022/01/05 12:34:40;;;;;;;;;;;10.40;97.70;;;;;;5113058;28;19919;-91
2022/01/05 12:37:27;;;;;;;;;;;10.40;97.70;;;;;;5111753;28;19912;-91
2022/01/05 12:39:56;;;;;;;;;;;10.40;98.00;;;;;;5113045;28;20006;-91
2022/01/05 12:42:22;;;;;;;;;;;10.40;97.90;;;;;;5112471;28;19923;-91
2022/01/05 12:44:47;;;;;;;;;;;10.40;97.90;;;;;;5113494;28;19960;-91
2022/01/05 12:47:13;;;;;;;;;;;10.40;97.90;;;;;;5112357;28;19908;-91
2022/01/05 12:49:39;;;;;;;;;;;10.30;97.90;;;;;;5120087;27;19907;-91
2022/01/05 12:52:06;;;;;;;;;;;10.30;98.00;;;;;;5151345;27;20022;-91
2022/01/05 12:54:41;;;;;;;;;;;10.30;98.00;;;;;;5123248;27;19907;-91
2022/01/05 12:57:09;;;;;;;;;;;10.30;98.20;;;;;;5120439;27;19914;-91
2022/01/05 12:59:44;;;;;;;;;;;10.20;98.20;;;;;;5138552;27;19952;-91
2022/01/05 13:02:23;;;;;;;;;;;10.20;98.30;;;;;;5121031;27;20380;-91
2022/01/05 13:04:50;;;;;;;;;;;10.20;98.40;;;;;;5120957;27;19955;-91
2022/01/05 13:07:15;;;;;;;;;;;10.10;98.50;;;;;;5119917;27;19953;-91
2022/01/05 13:09:45;;;;;;;;;;;10.10;98.50;;;;;;5137276;27;19908;-91
2022/01/05 13:12:12;;;;;;;;;;;10.10;98.60;;;;;;5120666;27;19907;-91
2022/01/05 13:14:41;;;;;;;;;;;10.10;98.60;;;;;;5119949;27;19954;-91
2022/01/05 13:17:12;;;;;;;;;;;10.10;98.80;;;;;;5119785;27;19984;-91
2022/01/05 13:19:42;;;;;;;;;;;10.10;98.80;;;;;;5137955;27;19907;-92
2022/01/05 13:22:10;;;;;;;;;;;10.00;98.90;;;;;;5137446;27;19911;-92
2022/01/05 13:24:41;;;;;;;;;;;10.10;98.80;;;;;;5120640;27;19915;-91
2022/01/05 13:27:07;;;;;;;;;;;10.00;98.90;;;;;;5137618;27;20342;-93
2022/01/05 13:29:34;;;;;;;;;;;10.00;98.90;;;;;;5120502;27;19911;-93
2022/01/05 13:32:02;;;;;;;;;;;10.00;99.00;;;;;;5119962;27;19907;-92
2022/01/05 13:34:38;;;;;;;;;;;10.00;99.10;;;;;;5120363;27;19950;-92
2022/01/05 13:37:04;;;;;;;;;;;10.00;99.40;;;;;;5120505;27;20258;-92
2022/01/05 13:39:48;;;;;;;;;;;10.00;99.10;;;;;;5119699;27;19908;-92
2022/01/05 13:42:29;;;;;;;;;;;10.00;99.20;;;;;;5115457;28;19919;-92
2022/01/05 13:44:55;;;;;;;;;;;10.00;99.30;;;;;;5133427;27;19908;-92
2022/01/05 13:47:23;;;;;;;;;;;9.90;99.50;;;;;;5115752;27;20274;-90
2022/01/05 13:50:08;;;;;;;;;;;9.90;99.50;;;;;;5133701;27;19907;-91
2022/01/05 13:52:34;;;;;;;;;;;9.90;99.50;;;;;;5115764;28;20354;-90
2022/01/05 13:55:00;;;;;;;;;;;9.80;99.60;;;;;;5133360;27;19907;-90
2022/01/05 13:57:28;;;;;;;;;;;9.80;99.80;;;;;;5133424;27;20270;-90
2022/01/05 14:00:12;;;;;;;;;;;9.80;99.80;;;;;;5133040;27;19912;-90
2022/01/05 14:02:38;;;;;;;;;;;9.80;99.90;;;;;;5132335;27;20273;-92
2022/01/05 14:05:07;;;;;;;;;;;9.80;99.90;;;;;;5132667;27;19961;-92
2022/01/05 14:07:35;;;;;;;;;;;9.80;99.90;;;;;;5133055;27;20010;-92
2022/01/05 14:10:14;;;;;;;;;;;9.80;99.90;;;;;;5133342;27;19924;-92
2022/01/05 14:12:41;;;;;;;;;;;9.80;99.90;;;;;;5134032;27;19908;-91
2022/01/05 14:15:08;;;;;;;;;;;9.80;99.90;;;;;;5133492;27;20007;-91
2022/01/05 14:17:34;;;;;;;;;;;9.80;99.90;;;;;;5134853;27;19908;-92
2022/01/05 14:20:13;;;;;;;;;;;9.80;99.90;;;;;;5134983;27;19917;-92
2022/01/05 14:25:34;;;;;;;;;;;9.70;99.90;;;;;;5130331;27;19916;-92
2022/01/05 14:28:10;;;;;;;;;;;9.70;99.90;;;;;;5132394;27;19907;-91
2022/01/05 14:30:36;;;;;;;;;;;9.70;99.90;;;;;;5132814;27;19908;-92
2022/01/05 14:33:01;;;;;;;;;;;9.70;99.90;;;;;;5132329;27;19908;-91
2022/01/05 14:35:28;;;;;;;;;;;9.60;99.90;;;;;;5132405;27;19908;-92
2022/01/05 14:37:55;;;;;;;;;;;9.60;99.90;;;;;;5132240;27;20048;-92
2022/01/05 14:40:26;;;;;;;;;;;9.60;99.90;;;;;;5133352;27;19908;-92
2022/01/05 14:42:59;;;;;;;;;;;9.60;99.90;;;;;;5132249;27;19920;-92
2022/01/05 14:45:25;;;;;;;;;;;9.60;99.90;;;;;;5132798;27;20345;-92
2022/01/05 14:47:51;;;;;;;;;;;9.60;99.90;;;;;;5132604;27;19914;-92